createdAt,value
2023-03-06T00:00:42.858Z,50.07
2023-03-06T00:01:46.974Z,49.74
2023-03-06T00:02:52.230Z,49.8
2023-03-06T00:03:56.618Z,49.7
2023-03-06T00:05:00.751Z,49.87
2023-03-06T00:06:05.167Z,49.73
2023-03-06T00:07:09.418Z,49.74
2023-03-06T00:08:13.522Z,49.46
2023-03-06T00:09:17.634Z,49.47
2023-03-06T00:10:21.772Z,49.58
2023-03-06T00:11:26.042Z,49.63
2023-03-06T00:12:30.205Z,49.7
2023-03-06T00:13:34.284Z,49.82
2023-03-06T00:14:38.399Z,49.76
2023-03-06T00:15:42.513Z,49.62
2023-03-06T00:16:46.631Z,49.81
2023-03-06T00:17:50.759Z,49.97
2023-03-06T00:18:54.883Z,49.95
2023-03-06T00:19:58.993Z,49.85
2023-03-06T00:21:03.101Z,49.84
2023-03-06T00:22:07.219Z,49.91
2023-03-06T00:23:11.351Z,49.99
2023-03-06T00:24:15.453Z,49.92
2023-03-06T00:25:19.525Z,50.02
2023-03-06T00:26:23.638Z,50.01
2023-03-06T00:27:27.775Z,49.96
2023-03-06T00:28:31.924Z,49.96
2023-03-06T00:29:36.038Z,49.99
2023-03-06T00:30:40.200Z,49.98
2023-03-06T00:31:44.433Z,49.98
2023-03-06T00:32:48.543Z,49.96
2023-03-06T00:33:52.709Z,49.95
2023-03-06T00:34:56.831Z,50.03
2023-03-06T00:36:00.977Z,50.04
2023-03-06T00:37:05.055Z,50.01
2023-03-06T00:38:09.193Z,50.01
2023-03-06T00:39:13.293Z,49.9
2023-03-06T00:40:17.402Z,49.92
2023-03-06T00:41:21.502Z,49.94
2023-03-06T00:42:25.596Z,49.87
2023-03-06T00:43:29.700Z,49.83
2023-03-06T00:44:33.849Z,49.9
2023-03-06T00:45:38.100Z,49.85
2023-03-06T00:46:42.253Z,49.88
2023-03-06T00:47:46.364Z,49.81
2023-03-06T00:48:50.496Z,49.82
2023-03-06T00:49:54.593Z,49.89
2023-03-06T00:50:58.721Z,49.97
2023-03-06T00:52:02.841Z,49.98
2023-03-06T00:53:06.995Z,49.9
2023-03-06T00:54:11.114Z,49.9
2023-03-06T00:55:15.221Z,49.9
2023-03-06T00:56:21.799Z,49.83
2023-03-06T00:57:25.907Z,49.77
2023-03-06T00:58:29.995Z,49.76
2023-03-06T00:59:34.150Z,49.87
2023-03-06T01:00:38.561Z,49.82
2023-03-06T01:01:42.693Z,49.78
2023-03-06T01:02:46.803Z,49.79
2023-03-06T01:03:50.973Z,49.71
2023-03-06T01:04:55.124Z,49.78
2023-03-06T03:06:42.266Z,50.09
2023-03-06T03:07:46.403Z,49.57
2023-03-06T03:08:50.523Z,49.4
2023-03-06T03:09:54.631Z,49.31
2023-03-06T03:10:58.770Z,49.17
2023-03-06T03:12:02.935Z,49.21
2023-03-06T03:13:07.079Z,49.14
2023-03-06T03:14:11.237Z,49.21
2023-03-06T03:15:15.374Z,49.09
2023-03-06T03:16:19.868Z,49
2023-03-06T03:17:24.045Z,49.05
2023-03-06T03:18:28.142Z,49.05
2023-03-06T03:19:32.244Z,48.97
2023-03-06T03:20:36.335Z,48.93
2023-03-06T03:21:40.441Z,48.88
2023-03-06T03:22:44.579Z,48.9
2023-03-06T03:23:48.720Z,48.94
2023-03-06T03:24:53.134Z,48.86
2023-03-06T03:25:57.355Z,48.9
2023-03-06T03:27:01.451Z,48.87
2023-03-06T03:28:05.571Z,48.85
2023-03-06T03:29:09.659Z,48.83
2023-03-06T03:30:13.753Z,48.78
2023-03-06T03:31:18.125Z,48.79
2023-03-06T03:32:22.422Z,48.79
2023-03-06T03:33:26.571Z,48.84
2023-03-06T03:34:30.683Z,48.79
2023-03-06T03:35:34.907Z,48.79
2023-03-06T03:36:39.049Z,48.78
2023-03-06T03:37:43.166Z,48.75
2023-03-06T03:38:47.308Z,48.82
2023-03-06T03:39:51.431Z,48.76
2023-03-06T03:40:55.525Z,48.77
2023-03-06T03:41:59.635Z,48.83
2023-03-06T03:43:03.772Z,48.83
2023-03-06T03:44:07.913Z,48.77
2023-03-06T03:45:12.041Z,48.69
2023-03-06T03:46:16.377Z,48.77
2023-03-06T03:47:20.495Z,48.75
2023-03-06T03:48:24.623Z,48.75
2023-03-06T03:49:28.763Z,48.69
2023-03-06T03:50:32.854Z,48.68
2023-03-06T03:51:36.985Z,48.73
2023-03-06T03:52:41.103Z,48.69
2023-03-06T03:53:45.214Z,48.69
2023-03-06T03:54:49.395Z,48.63
2023-03-06T03:55:53.503Z,48.55
2023-03-06T03:56:57.587Z,48.61
2023-03-06T03:58:01.684Z,48.63
2023-03-06T03:59:05.775Z,48.74
2023-03-06T04:00:09.905Z,48.69
2023-03-06T04:01:14.002Z,48.69
2023-03-06T04:02:18.398Z,48.67
2023-03-06T04:03:22.558Z,48.66
2023-03-06T04:04:26.832Z,48.75
2023-03-06T04:05:30.977Z,48.63
2023-03-06T04:06:35.087Z,48.65
2023-03-06T04:07:39.205Z,48.67
2023-03-06T04:08:43.333Z,48.72
2023-03-06T04:09:47.432Z,48.67
2023-03-06T04:10:51.572Z,48.69
2023-03-06T04:11:55.694Z,48.64
2023-03-06T04:12:59.813Z,48.61
2023-03-06T04:14:04.002Z,48.74
2023-03-06T04:15:08.128Z,48.79
2023-03-06T04:16:12.316Z,48.51
2023-03-06T04:17:16.430Z,48.46
2023-03-06T04:18:20.532Z,48.4
2023-03-06T04:19:24.642Z,48.31
2023-03-06T04:20:28.770Z,48.27
2023-03-06T04:21:32.915Z,48.22
2023-03-06T04:22:37.085Z,48.18
2023-03-06T04:23:41.281Z,48.14
2023-03-06T04:24:45.529Z,48.09
2023-03-06T04:25:49.672Z,48.04
2023-03-06T04:26:53.787Z,47.97
2023-03-06T04:27:57.882Z,47.88
2023-03-06T04:29:02.035Z,47.79
2023-03-06T04:30:06.157Z,47.77
2023-03-06T04:31:10.346Z,47.74
2023-03-06T04:32:14.541Z,47.65
2023-03-06T04:33:18.702Z,47.58
2023-03-06T04:34:22.830Z,47.58
2023-03-06T04:35:27.118Z,47.57
2023-03-06T04:36:31.232Z,47.53
2023-03-06T04:37:35.575Z,47.54
2023-03-06T04:38:39.900Z,47.55
2023-03-06T04:39:44.030Z,47.55
2023-03-06T04:40:48.501Z,47.53
2023-03-06T04:41:52.818Z,47.51
2023-03-06T04:42:57.149Z,47.52
2023-03-06T04:44:01.262Z,47.55
2023-03-06T04:45:05.368Z,47.57
2023-03-06T04:46:09.664Z,47.55
2023-03-06T04:47:13.776Z,47.55
2023-03-06T04:48:17.938Z,47.51
2023-03-06T04:49:22.055Z,47.51
2023-03-06T04:50:26.358Z,47.46
2023-03-06T04:51:30.493Z,47.45
2023-03-06T04:52:34.585Z,47.44
2023-03-06T04:53:38.725Z,47.46
2023-03-06T04:54:42.850Z,47.5
2023-03-06T04:55:46.983Z,47.25
2023-03-06T04:56:51.095Z,47.14
2023-03-06T04:57:55.210Z,47.1
2023-03-06T04:58:59.426Z,47.18
2023-03-06T05:00:03.559Z,47.18
2023-03-06T05:01:08.014Z,47.16
2023-03-06T05:02:12.230Z,47.17
2023-03-06T05:03:16.376Z,47.17
2023-03-06T05:04:20.514Z,47.17
2023-03-06T05:05:24.629Z,47.2
2023-03-06T05:06:28.735Z,47.17
2023-03-06T05:07:32.872Z,47.2
2023-03-06T05:08:37.042Z,47.2
2023-03-06T05:09:41.164Z,47.11
2023-03-06T05:10:45.283Z,47.12
2023-03-06T05:11:49.402Z,47.13
2023-03-06T05:12:53.575Z,47.14
2023-03-06T05:13:57.722Z,47.18
2023-03-06T05:15:01.893Z,47.17
2023-03-06T05:16:06.311Z,47.19
2023-03-06T05:17:10.482Z,47.17
2023-03-06T05:18:14.628Z,47.13
2023-03-06T05:19:18.724Z,47.08
2023-03-06T05:20:22.836Z,47.06
2023-03-06T05:21:26.989Z,46.98
2023-03-06T05:22:31.113Z,46.7
2023-03-06T05:23:35.214Z,46.22
2023-03-06T05:24:39.332Z,46.15
2023-03-06T05:25:43.441Z,45.92
2023-03-06T05:26:47.567Z,45.73
2023-03-06T05:27:51.703Z,45.52
2023-03-06T05:28:55.841Z,45.03
2023-03-06T05:29:59.956Z,44.46
2023-03-06T05:31:05.418Z,44.15
2023-03-06T05:32:10.205Z,43.9
2023-03-06T05:33:14.424Z,43.78
2023-03-06T05:34:18.543Z,43.69
2023-03-06T05:35:22.850Z,43.66
2023-03-06T05:36:27.086Z,43.64
2023-03-06T05:37:31.455Z,43.57
2023-03-06T05:38:35.802Z,43.52
2023-03-06T05:39:39.919Z,43.48
2023-03-06T05:40:44.097Z,43.43
2023-03-06T05:41:48.215Z,43.37
2023-03-06T05:42:52.408Z,43.37
2023-03-06T05:43:56.511Z,43.34
2023-03-06T05:45:00.727Z,43.23
2023-03-06T05:46:05.288Z,43.14
2023-03-06T05:47:09.447Z,43.19
2023-03-06T05:48:13.578Z,43.35
2023-03-06T05:49:17.712Z,43.51
2023-03-06T05:50:21.831Z,43.69
2023-03-06T05:51:25.927Z,43.8
2023-03-06T05:52:30.038Z,43.95
2023-03-06T05:53:34.165Z,44.15
2023-03-06T05:54:38.334Z,44.38
2023-03-06T05:55:42.416Z,44.51
2023-03-06T05:56:46.536Z,44.7
2023-03-06T05:57:50.678Z,44.77
2023-03-06T05:58:54.828Z,44.73
2023-03-06T05:59:58.907Z,44.78
2023-03-06T06:01:03.021Z,44.79
2023-03-06T06:02:07.243Z,44.89
2023-03-06T06:03:11.558Z,45.04
2023-03-06T06:04:15.692Z,45.13
2023-03-06T06:05:19.801Z,45.21
2023-03-06T06:06:23.912Z,45.25
2023-03-06T06:07:28.028Z,45.3
2023-03-06T06:08:32.285Z,45.31
2023-03-06T06:09:36.442Z,45.34
2023-03-06T06:10:40.582Z,45.36
2023-03-06T06:11:44.713Z,45.42
2023-03-06T06:12:48.828Z,45.45
2023-03-06T06:13:53.045Z,45.48
2023-03-06T06:14:57.133Z,45.5
2023-03-06T06:16:01.446Z,45.54
2023-03-06T06:17:05.585Z,45.55
2023-03-06T06:18:09.728Z,45.58
2023-03-06T06:19:13.871Z,45.59
2023-03-06T06:20:17.970Z,45.6
2023-03-06T06:21:22.083Z,45.63
2023-03-06T06:22:26.227Z,45.65
2023-03-06T06:23:30.336Z,45.66
2023-03-06T06:24:34.503Z,45.68
2023-03-06T06:25:38.633Z,45.72
2023-03-06T06:26:42.747Z,45.74
2023-03-06T06:27:46.886Z,45.7
2023-03-06T06:28:50.998Z,45.72
2023-03-06T06:29:55.119Z,45.75
2023-03-06T06:30:59.545Z,45.77
2023-03-06T06:32:03.857Z,45.78
2023-03-06T06:33:07.983Z,45.74
2023-03-06T06:34:12.096Z,45.77
2023-03-06T06:35:16.225Z,45.76
2023-03-06T06:36:20.363Z,45.77
2023-03-06T06:37:24.656Z,45.78
2023-03-06T06:38:28.799Z,45.66
2023-03-06T06:39:32.919Z,45.72
2023-03-06T06:40:37.052Z,45.72
2023-03-06T06:42:33.124Z,45.76
2023-03-06T06:43:38.682Z,45.86
2023-03-06T06:44:42.919Z,45.81
2023-03-06T06:45:48.949Z,45.79
2023-03-06T06:47:26.223Z,45.96
2023-03-06T06:48:30.475Z,45.96
2023-03-06T06:49:34.603Z,45.89
2023-03-06T06:50:38.817Z,45.85
2023-03-06T06:51:42.960Z,45.86
2023-03-06T06:52:47.140Z,45.98
2023-03-06T06:53:51.267Z,45.93
2023-03-06T06:54:55.429Z,45.93
2023-03-06T06:55:59.560Z,45.97
2023-03-06T06:57:03.883Z,45.99
2023-03-06T06:58:07.992Z,45.94
2023-03-06T06:59:19.134Z,45.92
2023-03-06T07:00:23.272Z,45.92
2023-03-06T07:01:27.501Z,45.93
2023-03-06T07:02:31.650Z,46
2023-03-06T07:03:35.884Z,46.04
2023-03-06T07:05:03.419Z,46.04
2023-03-06T07:06:08.314Z,46.06
2023-03-06T07:07:12.479Z,46.05
2023-03-06T07:08:16.594Z,46.05
2023-03-06T07:09:20.729Z,46.05
2023-03-06T07:10:24.849Z,46.03
2023-03-06T07:11:28.986Z,45.95
2023-03-06T07:12:33.091Z,46
2023-03-06T07:13:37.222Z,45.94
2023-03-06T07:14:41.329Z,45.94
2023-03-06T07:15:45.644Z,45.96
2023-03-06T07:16:49.800Z,46.03
2023-03-06T07:17:53.923Z,45.99
2023-03-06T07:18:58.161Z,45.99
2023-03-06T07:20:02.359Z,46.05
2023-03-06T07:21:06.496Z,46.09
2023-03-06T07:22:10.629Z,46.08
2023-03-06T07:23:14.743Z,46.09
2023-03-06T07:24:18.894Z,46.06
2023-03-06T07:25:23.021Z,46.13
2023-03-06T07:26:27.145Z,46.09
2023-03-06T07:27:31.404Z,46.11
2023-03-06T07:28:54.013Z,46.11
2023-03-06T07:29:58.146Z,46.13
2023-03-06T07:31:02.381Z,46.14
2023-03-06T07:32:06.684Z,46.13
2023-03-06T07:33:10.807Z,46.09
2023-03-06T07:34:14.951Z,46.12
2023-03-06T07:35:31.489Z,46.09
2023-03-06T07:36:35.719Z,46.05
2023-03-06T07:37:39.856Z,46.07
2023-03-06T07:38:43.971Z,46.13
2023-03-06T07:39:48.076Z,46.07
2023-03-06T07:40:52.216Z,46.09
2023-03-06T07:41:56.327Z,46.14
2023-03-06T07:43:20.395Z,46.11
2023-03-06T07:44:24.502Z,46.19
2023-03-06T07:45:28.627Z,46.15
2023-03-06T07:46:33.056Z,46.17
2023-03-06T07:47:37.224Z,46.16
2023-03-06T07:48:41.331Z,46.13
2023-03-06T07:49:45.462Z,46.13
2023-03-06T07:50:49.583Z,46.19
2023-03-06T07:51:53.720Z,46.13
2023-03-06T07:52:57.834Z,46.15
2023-03-06T07:54:02.004Z,46.15
2023-03-06T07:55:06.108Z,46.16
2023-03-06T07:56:10.460Z,46.19
2023-03-06T07:57:14.592Z,46.15
2023-03-06T07:58:18.687Z,46.23
2023-03-06T07:59:22.826Z,46.2
2023-03-06T08:00:26.964Z,46.14
2023-03-06T08:01:31.168Z,46.15
2023-03-06T08:02:35.373Z,46.15
2023-03-06T08:03:39.747Z,46.22
2023-03-06T08:04:43.925Z,46.2
2023-03-06T08:05:48.058Z,46.17
2023-03-06T08:06:52.168Z,46.18
2023-03-06T08:07:56.346Z,46.21
2023-03-06T08:09:00.484Z,46.19
2023-03-06T08:10:04.603Z,46.23
2023-03-06T08:11:08.742Z,46.14
2023-03-06T08:12:13.116Z,46.18
2023-03-06T08:13:17.947Z,46.17
2023-03-06T08:14:22.138Z,46.21
2023-03-06T08:15:26.282Z,46.2
2023-03-06T08:16:30.699Z,46.14
2023-03-06T08:17:34.886Z,46.1
2023-03-06T08:18:39.022Z,46.14
2023-03-06T08:19:43.150Z,46.17
2023-03-06T08:20:47.297Z,46.12
2023-03-06T08:21:51.414Z,46.16
2023-03-06T08:22:55.538Z,46.15
2023-03-06T08:23:59.715Z,46.14
2023-03-06T08:25:03.840Z,46.14
2023-03-06T08:26:07.985Z,46.16
2023-03-06T08:27:12.099Z,46.17
2023-03-06T08:28:16.242Z,46.11
2023-03-06T08:29:20.345Z,46.1
2023-03-06T08:30:24.487Z,46.09
2023-03-06T08:31:28.921Z,46.02
2023-03-06T08:32:33.263Z,46
2023-03-06T08:33:37.626Z,46.09
2023-03-06T08:34:41.764Z,46.05
2023-03-06T08:35:46.092Z,46.07
2023-03-06T08:36:50.218Z,46.05
2023-03-06T08:37:54.389Z,46.06
2023-03-06T08:38:58.556Z,46.16
2023-03-06T08:40:02.689Z,46.1
2023-03-06T08:41:06.867Z,46.04
2023-03-06T08:42:10.993Z,46.17
2023-03-06T08:43:16.270Z,46.12
2023-03-06T08:44:20.388Z,46.05
2023-03-06T08:45:24.741Z,46.07
2023-03-06T08:46:28.896Z,46.06
2023-03-06T08:47:33.007Z,46.1
2023-03-06T08:48:37.183Z,46.05
2023-03-06T08:49:41.349Z,45.98
2023-03-06T08:50:45.520Z,46.04
2023-03-06T08:51:49.785Z,46.05
2023-03-06T08:52:53.909Z,45.91
2023-03-06T08:53:58.006Z,45.93
2023-03-06T08:55:02.213Z,46.05
2023-03-06T08:56:06.313Z,46.01
2023-03-06T08:57:10.418Z,45.9
2023-03-06T08:58:14.513Z,45.87
2023-03-06T08:59:18.646Z,45.85
2023-03-06T09:00:22.954Z,45.89
2023-03-06T09:01:27.260Z,45.95
2023-03-06T09:02:31.552Z,45.92
2023-03-06T09:03:35.697Z,45.98
2023-03-06T09:04:39.845Z,46.01
2023-03-06T09:05:44.018Z,46.02
2023-03-06T09:06:48.153Z,46.1
2023-03-06T09:07:52.328Z,46.03
2023-03-06T09:08:56.508Z,46.1
2023-03-06T09:10:00.664Z,45.85
2023-03-06T09:11:04.865Z,45.81
2023-03-06T09:12:08.951Z,45.91
2023-03-06T09:13:13.074Z,45.76
2023-03-06T09:14:17.236Z,45.67
2023-03-06T09:15:21.364Z,45.7
2023-03-06T09:16:25.752Z,45.64
2023-03-06T09:17:30.058Z,45.61
2023-03-06T09:18:34.285Z,45.45
2023-03-06T09:19:38.422Z,45.43
2023-03-06T09:20:42.570Z,45.51
2023-03-06T09:21:46.685Z,45.52
2023-03-06T09:22:50.809Z,45.38
2023-03-06T09:23:54.953Z,45.4
2023-03-06T09:24:59.049Z,45.38
2023-03-06T09:26:03.215Z,45.46
2023-03-06T09:27:07.334Z,45.36
2023-03-06T09:28:13.986Z,45.32
2023-03-06T09:29:18.449Z,45.26
2023-03-06T09:30:22.549Z,45.2
2023-03-06T09:31:26.676Z,45.28
2023-03-06T09:32:31.048Z,45.31
2023-03-06T09:33:35.171Z,45.31
2023-03-06T09:34:39.290Z,45.29
2023-03-06T09:35:43.523Z,45.27
2023-03-06T09:36:58.797Z,45.28
2023-03-06T09:38:02.935Z,45.27
2023-03-06T09:39:07.060Z,45.29
2023-03-06T09:40:11.180Z,45.28
2023-03-06T09:41:15.314Z,45.25
2023-03-06T09:42:19.470Z,45.23
2023-03-06T09:43:23.612Z,45.2
2023-03-06T09:44:27.764Z,45.17
2023-03-06T09:45:31.934Z,45.17
2023-03-06T09:46:36.056Z,45.19
2023-03-06T09:47:40.193Z,45.17
2023-03-06T09:48:44.327Z,45.18
2023-03-06T09:49:48.430Z,45.16
2023-03-06T09:50:52.592Z,45.16
2023-03-06T09:51:56.819Z,45.14
2023-03-06T09:53:00.927Z,45.13
2023-03-06T09:54:05.057Z,45.08
2023-03-06T09:55:09.164Z,45.09
2023-03-06T09:56:13.271Z,45.1
2023-03-06T09:57:17.379Z,45.12
2023-03-06T09:58:21.498Z,45.1
2023-03-06T09:59:25.663Z,45.13
2023-03-06T10:00:29.782Z,45.09
2023-03-06T10:01:33.912Z,45.1
2023-03-06T10:02:38.530Z,45.09
2023-03-06T10:03:42.731Z,45.11
2023-03-06T10:04:47.114Z,45.11
2023-03-06T10:05:51.245Z,45.09
2023-03-06T10:06:55.373Z,45.05
2023-03-06T10:07:59.587Z,45.07
2023-03-06T10:09:03.727Z,45.08
2023-03-06T10:10:07.857Z,45.09
2023-03-06T10:11:12.001Z,45.08
2023-03-06T10:12:16.112Z,45.04
2023-03-06T10:13:20.259Z,45.02
2023-03-06T10:14:24.355Z,45.01
2023-03-06T10:15:28.689Z,45.02
2023-03-06T10:16:32.869Z,45.01
2023-03-06T10:17:37.080Z,45.02
2023-03-06T10:18:41.209Z,44.99
2023-03-06T10:19:45.337Z,44.93
2023-03-06T10:20:49.469Z,44.93
2023-03-06T10:21:53.584Z,44.94
2023-03-06T10:23:06.430Z,44.97
2023-03-06T10:24:10.555Z,44.99
2023-03-06T10:25:14.722Z,44.97
2023-03-06T10:26:19.280Z,44.98
2023-03-06T10:27:23.697Z,44.98
2023-03-06T10:28:27.821Z,44.97
2023-03-06T10:29:31.934Z,44.97
2023-03-06T10:30:36.059Z,44.95
2023-03-06T10:31:40.192Z,44.95
2023-03-06T10:32:50.993Z,44.95
2023-03-06T10:33:55.134Z,44.97
2023-03-06T10:34:59.226Z,44.94
2023-03-06T10:36:03.520Z,44.96
2023-03-06T10:37:07.668Z,44.95
2023-03-06T10:38:11.780Z,44.91
2023-03-06T10:39:15.898Z,44.85
2023-03-06T10:40:20.070Z,44.75
2023-03-06T10:41:24.315Z,44.7
2023-03-06T10:42:30.811Z,44.64
2023-03-06T10:43:38.139Z,44.54
2023-03-06T10:44:42.246Z,44.48
2023-03-06T10:45:51.138Z,44.4
2023-03-06T10:46:55.258Z,44.34
2023-03-06T10:47:59.366Z,44.31
2023-03-06T10:49:03.835Z,44.24
2023-03-06T10:50:10.292Z,44.19
2023-03-06T10:51:20.372Z,44.12
2023-03-06T10:52:24.525Z,44.1
2023-03-06T10:53:28.648Z,44.01
2023-03-06T10:54:32.796Z,43.99
2023-03-06T10:55:36.934Z,43.97
2023-03-06T10:56:41.095Z,44
2023-03-06T10:57:45.224Z,43.99
2023-03-06T10:58:49.338Z,44.02
2023-03-06T10:59:53.497Z,44.03
2023-03-06T11:00:57.640Z,44.03
2023-03-06T11:02:02.138Z,44.06
2023-03-06T11:03:06.276Z,44.07
2023-03-06T11:04:10.470Z,44.09
2023-03-06T11:05:14.593Z,44.06
2023-03-06T11:06:18.703Z,44.06
2023-03-06T11:07:22.884Z,44.08
2023-03-06T11:08:27.056Z,44.13
2023-03-06T11:09:31.176Z,44.13
2023-03-06T11:10:35.296Z,44.11
2023-03-06T11:11:40.110Z,44.09
2023-03-06T11:12:44.237Z,44.11
2023-03-06T11:13:48.334Z,44.14
2023-03-06T11:14:52.416Z,44.15
2023-03-06T11:15:56.672Z,44.14
2023-03-06T11:17:00.843Z,44.09
2023-03-06T11:18:04.968Z,44.04
2023-03-06T11:19:09.093Z,43.99
2023-03-06T11:20:13.186Z,43.93
2023-03-06T11:21:17.294Z,43.9
2023-03-06T11:22:21.421Z,43.85
2023-03-06T11:23:25.529Z,43.77
2023-03-06T11:24:29.635Z,43.7
2023-03-06T11:25:33.783Z,43.69
2023-03-06T11:26:37.938Z,43.63
2023-03-06T11:27:42.051Z,43.54
2023-03-06T11:28:46.307Z,43.52
2023-03-06T11:29:50.587Z,43.63
2023-03-06T11:30:54.738Z,43.7
2023-03-06T11:31:58.893Z,43.72
2023-03-06T11:33:03.018Z,43.74
2023-03-06T11:34:07.117Z,43.75
2023-03-06T11:35:11.255Z,43.75
2023-03-06T11:36:15.372Z,43.82
2023-03-06T11:37:19.469Z,43.79
2023-03-06T11:38:23.615Z,43.81
2023-03-06T11:39:27.725Z,43.86
2023-03-06T11:40:31.826Z,43.91
2023-03-06T11:41:36.044Z,43.87
2023-03-06T11:42:40.183Z,43.89
2023-03-06T11:43:44.308Z,43.88
2023-03-06T11:44:48.466Z,43.89
2023-03-06T11:45:52.654Z,43.92
2023-03-06T11:46:56.894Z,43.92
2023-03-06T11:48:01.106Z,43.92
2023-03-06T11:49:05.230Z,43.87
2023-03-06T11:50:09.364Z,43.87
2023-03-06T11:51:13.490Z,43.88
2023-03-06T11:52:17.700Z,43.88
2023-03-06T11:53:21.835Z,43.87
2023-03-06T11:54:25.960Z,43.92
2023-03-06T11:55:30.053Z,43.82
2023-03-06T11:56:34.181Z,43.85
2023-03-06T11:57:38.420Z,43.87
2023-03-06T11:58:42.533Z,43.94
2023-03-06T11:59:46.659Z,43.97
2023-03-06T12:00:50.785Z,43.97
2023-03-06T12:01:55.169Z,43.99
2023-03-06T12:02:59.305Z,44.07
2023-03-06T12:04:03.427Z,44.13
2023-03-06T12:05:07.897Z,44.16
2023-03-06T12:06:12.084Z,44.15
2023-03-06T12:07:16.219Z,44.19
2023-03-06T12:08:20.321Z,44.16
2023-03-06T12:09:24.452Z,44.19
2023-03-06T12:10:28.591Z,44.18
2023-03-06T12:11:35.159Z,44.16
2023-03-06T12:12:39.269Z,44.09
2023-03-06T12:13:43.405Z,44.1
2023-03-06T12:14:47.577Z,44.05
2023-03-06T12:15:51.715Z,44.04
2023-03-06T12:16:55.871Z,44.09
2023-03-06T12:18:00.004Z,44.09
2023-03-06T12:19:04.194Z,44.13
2023-03-06T12:20:08.332Z,44.12
2023-03-06T12:21:12.541Z,44.11
2023-03-06T12:22:16.639Z,44.17
2023-03-06T12:23:20.760Z,44.2
2023-03-06T12:24:24.913Z,44.24
2023-03-06T12:25:29.027Z,44.27
2023-03-06T12:26:33.173Z,44.3
2023-03-06T12:27:37.286Z,44.32
2023-03-06T12:28:41.396Z,44.34
2023-03-06T12:29:45.521Z,44.34
2023-03-06T12:30:49.682Z,44.36
2023-03-06T12:31:53.974Z,44.33
2023-03-06T12:32:58.119Z,44.28
2023-03-06T12:34:02.249Z,44.23
2023-03-06T12:35:08.105Z,44.18
2023-03-06T12:36:12.249Z,44.16
2023-03-06T12:37:16.352Z,44.16
2023-03-06T12:38:20.467Z,44.16
2023-03-06T12:39:24.590Z,44.15
2023-03-06T12:40:28.868Z,44.06
2023-03-06T12:41:33.296Z,44.05
2023-03-06T12:42:37.403Z,44.06
2023-03-06T12:43:42.122Z,44.04
2023-03-06T12:44:46.253Z,44.13
2023-03-06T12:45:50.664Z,44.16
2023-03-06T12:46:54.820Z,44.24
2023-03-06T12:47:58.946Z,44.21
2023-03-06T12:49:03.084Z,44.2
2023-03-06T12:50:07.388Z,44.21
2023-03-06T12:51:11.575Z,44.21
2023-03-06T12:52:30.108Z,44.24
2023-03-06T12:53:34.740Z,44.2
2023-03-06T12:54:38.884Z,44.15
2023-03-06T12:55:43.018Z,44.15
2023-03-06T12:56:47.150Z,44.11
2023-03-06T12:57:51.258Z,44.05
2023-03-06T12:58:55.425Z,44.03
2023-03-06T12:59:59.546Z,44.03
2023-03-06T13:01:07.104Z,44.03
2023-03-06T13:02:11.343Z,44.02
2023-03-06T13:03:15.528Z,44.02
2023-03-06T13:04:19.636Z,44.03
2023-03-06T13:05:23.769Z,44.02
2023-03-06T13:06:27.974Z,44.05
2023-03-06T13:07:32.097Z,44.04
2023-03-06T13:08:36.189Z,44.09
2023-03-06T13:09:40.292Z,44.12
2023-03-06T13:10:44.419Z,44.1
2023-03-06T13:11:48.530Z,44.11
2023-03-06T13:12:52.654Z,44.13
2023-03-06T13:13:56.785Z,44.13
2023-03-06T13:15:01.139Z,44.12
2023-03-06T13:16:05.327Z,44.09
2023-03-06T13:17:09.450Z,44.09
2023-03-06T13:18:13.549Z,44.05
2023-03-06T13:19:17.694Z,44.03
2023-03-06T13:20:21.825Z,44.06
2023-03-06T13:21:25.939Z,44.06
2023-03-06T13:22:30.030Z,44.05
2023-03-06T13:23:34.179Z,44.06
2023-03-06T13:24:38.353Z,44.03
2023-03-06T13:25:42.680Z,44.03
2023-03-06T13:26:46.860Z,44.02
2023-03-06T13:27:51.014Z,44.01
2023-03-06T13:28:55.138Z,43.97
2023-03-06T13:29:59.277Z,43.98
2023-03-06T13:31:03.539Z,43.97
2023-03-06T13:32:07.898Z,43.98
2023-03-06T13:33:11.997Z,43.94
2023-03-06T13:34:16.154Z,43.93
2023-03-06T13:35:20.349Z,43.9
2023-03-06T13:36:24.454Z,43.9
2023-03-06T13:37:28.563Z,43.91
2023-03-06T13:38:32.677Z,43.91
2023-03-06T13:39:36.800Z,43.93
2023-03-06T13:40:40.941Z,43.94
2023-03-06T13:41:45.092Z,43.94
2023-03-06T13:42:49.173Z,43.97
2023-03-06T13:43:53.292Z,43.99
2023-03-06T13:44:57.419Z,44
2023-03-06T13:46:01.681Z,44.03
2023-03-06T13:47:05.851Z,44.02
2023-03-06T13:48:46.267Z,44.06
2023-03-06T13:49:50.420Z,44.06
2023-03-06T13:50:54.548Z,44.05
2023-03-06T13:51:58.675Z,44
2023-03-06T13:53:02.791Z,44.03
2023-03-06T13:54:07.078Z,44.06
2023-03-06T13:55:11.219Z,44.07
2023-03-06T13:56:15.396Z,44.08
2023-03-06T13:57:19.557Z,44.09
2023-03-06T13:58:23.687Z,44.1
2023-03-06T13:59:27.800Z,44.11
2023-03-06T14:00:31.966Z,44.15
2023-03-06T14:01:36.658Z,44.16
2023-03-06T14:02:41.057Z,44.16
2023-03-06T14:03:45.210Z,44.15
2023-03-06T14:04:49.342Z,44.16
2023-03-06T14:05:53.467Z,44.17
2023-03-06T14:06:57.594Z,44.18
2023-03-06T14:08:01.702Z,44.19
2023-03-06T14:09:05.844Z,44.18
2023-03-06T14:10:10.033Z,44.23
2023-03-06T14:11:14.162Z,44.21
2023-03-06T14:12:18.316Z,44.22
2023-03-06T14:13:22.450Z,44.23
2023-03-06T14:14:26.566Z,44.24
2023-03-06T14:15:30.700Z,44.24
2023-03-06T14:16:51.853Z,44.25
2023-03-06T14:17:56.001Z,44.24
2023-03-06T14:19:00.111Z,44.27
2023-03-06T14:20:04.235Z,44.25
2023-03-06T14:21:08.339Z,44.23
2023-03-06T14:22:12.425Z,44.24
2023-03-06T14:23:16.682Z,44.26
2023-03-06T14:24:20.821Z,44.25
2023-03-06T14:25:24.978Z,44.28
2023-03-06T14:26:29.149Z,44.2
2023-03-06T14:27:33.255Z,44.22
2023-03-06T14:28:37.585Z,44.26
2023-03-06T14:29:41.706Z,44.27
2023-03-06T14:30:45.877Z,44.28
2023-03-06T14:31:50.028Z,44.32
2023-03-06T14:32:54.148Z,44.31
2023-03-06T14:33:58.299Z,44.33
2023-03-06T14:35:02.472Z,44.31
2023-03-06T14:36:08.848Z,44.31
2023-03-06T14:37:13.246Z,44.27
2023-03-06T14:38:17.395Z,44.31
2023-03-06T14:39:21.552Z,44.32
2023-03-06T14:40:25.678Z,44.33
2023-03-06T14:41:29.831Z,44.35
2023-03-06T14:42:33.959Z,44.35
2023-03-06T14:43:38.073Z,44.36
2023-03-06T14:44:42.283Z,44.38
2023-03-06T14:45:46.415Z,44.37
2023-03-06T14:46:50.831Z,44.38
2023-03-06T14:47:55.219Z,44.38
2023-03-06T14:48:59.333Z,44.4
2023-03-06T14:50:03.502Z,44.39
2023-03-06T14:51:07.730Z,44.43
2023-03-06T14:52:11.839Z,44.4
2023-03-06T14:53:15.958Z,44.39
2023-03-06T14:54:20.101Z,44.41
2023-03-06T14:55:24.260Z,44.42
2023-03-06T14:56:28.439Z,44.43
2023-03-06T14:57:32.544Z,44.39
2023-03-06T14:58:36.644Z,44.39
2023-03-06T14:59:40.792Z,44.44
2023-03-06T15:00:45.095Z,44.4
2023-03-06T15:01:49.714Z,44.45
2023-03-06T15:02:54.077Z,44.45
2023-03-06T15:03:58.201Z,44.46
2023-03-06T15:05:02.414Z,44.46
2023-03-06T15:06:06.558Z,44.42
2023-03-06T15:07:10.931Z,44.4
2023-03-06T15:08:15.080Z,44.46
2023-03-06T15:09:19.199Z,44.42
2023-03-06T15:10:23.407Z,44.38
2023-03-06T15:11:27.605Z,44.41
2023-03-06T15:12:31.744Z,44.46
2023-03-06T15:13:35.877Z,44.44
2023-03-06T15:14:40.029Z,44.47
2023-03-06T15:15:44.156Z,44.56
2023-03-06T15:16:48.306Z,44.61
2023-03-06T15:17:52.429Z,44.58
2023-03-06T15:18:56.564Z,44.66
2023-03-06T15:20:00.740Z,44.65
2023-03-06T15:21:04.893Z,44.67
2023-03-06T15:22:09.008Z,44.67
2023-03-06T15:23:13.140Z,44.69
2023-03-06T15:24:17.311Z,44.76
2023-03-06T15:25:21.463Z,44.85
2023-03-06T15:26:27.017Z,44.77
2023-03-06T15:27:32.824Z,44.68
2023-03-06T15:28:36.983Z,44.62
2023-03-06T15:29:41.098Z,44.59
2023-03-06T15:30:45.230Z,44.58
2023-03-06T15:31:49.595Z,44.55
2023-03-06T15:32:53.714Z,44.56
2023-03-06T15:33:57.822Z,44.51
2023-03-06T15:35:01.999Z,44.46
2023-03-06T15:36:06.173Z,44.47
2023-03-06T15:37:10.289Z,44.48
2023-03-06T15:38:28.489Z,44.52
2023-03-06T15:39:32.656Z,44.46
2023-03-06T15:40:36.785Z,44.47
2023-03-06T15:41:40.927Z,44.47
2023-03-06T15:42:45.045Z,44.5
2023-03-06T15:43:49.177Z,44.53
2023-03-06T15:44:53.324Z,44.49
2023-03-06T15:45:57.581Z,44.52
2023-03-06T15:47:10.662Z,44.46
2023-03-06T15:48:14.778Z,44.44
2023-03-06T15:49:18.922Z,44.46
2023-03-06T15:50:23.032Z,44.48
2023-03-06T15:51:27.165Z,44.47
2023-03-06T15:52:31.344Z,44.48
2023-03-06T15:53:35.516Z,44.55
2023-03-06T15:54:39.679Z,44.5
2023-03-06T15:55:43.884Z,44.51